sensor_id;sensor_type;location;lat;lon;timestamp;P1;durP1;ratioP1;P2;durP2;ratioP2
44026;SDS011;29696;55.698;37.460;2023-06-22T00:01:19;12.63;;;6.33;;
44026;SDS011;29696;55.698;37.460;2023-06-22T00:03:47;18.40;;;7.33;;
44026;SDS011;29696;55.698;37.460;2023-06-22T00:06:13;14.77;;;6.10;;
44026;SDS011;29696;55.698;37.460;2023-06-22T00:08:40;14.50;;;7.23;;
44026;SDS011;29696;55.698;37.460;2023-06-22T00:11:06;11.00;;;6.07;;
44026;SDS011;29696;55.698;37.460;2023-06-22T00:13:32;15.47;;;6.30;;
44026;SDS011;29696;55.698;37.460;2023-06-22T00:15:59;20.20;;;7.20;;
44026;SDS011;29696;55.698;37.460;2023-06-22T00:18:25;13.83;;;6.23;;
44026;SDS011;29696;55.698;37.460;2023-06-22T00:20:54;15.27;;;5.90;;
44026;SDS011;29696;55.698;37.460;2023-06-22T00:23:24;10.67;;;5.97;;
44026;SDS011;29696;55.698;37.460;2023-06-22T00:25:51;12.43;;;5.90;;
44026;SDS011;29696;55.698;37.460;2023-06-22T00:28:18;12.43;;;6.27;;
44026;SDS011;29696;55.698;37.460;2023-06-22T00:30:44;16.33;;;6.93;;
44026;SDS011;29696;55.698;37.460;2023-06-22T00:33:11;18.00;;;8.30;;
44026;SDS011;29696;55.698;37.460;2023-06-22T00:35:40;13.60;;;6.17;;
44026;SDS011;29696;55.698;37.460;2023-06-22T00:38:08;25.47;;;7.90;;
44026;SDS011;29696;55.698;37.460;2023-06-22T00:40:34;17.77;;;6.00;;
44026;SDS011;29696;55.698;37.460;2023-06-22T00:43:01;21.03;;;7.67;;
44026;SDS011;29696;55.698;37.460;2023-06-22T00:45:29;14.63;;;7.97;;
44026;SDS011;29696;55.698;37.460;2023-06-22T00:47:58;19.27;;;6.83;;
44026;SDS011;29696;55.698;37.460;2023-06-22T00:50:26;14.87;;;6.90;;
44026;SDS011;29696;55.698;37.460;2023-06-22T00:52:57;21.57;;;6.93;;
44026;SDS011;29696;55.698;37.460;2023-06-22T00:55:26;19.33;;;7.67;;
44026;SDS011;29696;55.698;37.460;2023-06-22T00:57:53;25.37;;;7.97;;
44026;SDS011;29696;55.698;37.460;2023-06-22T01:00:23;12.73;;;6.70;;
44026;SDS011;29696;55.698;37.460;2023-06-22T01:02:51;13.17;;;7.93;;
44026;SDS011;29696;55.698;37.460;2023-06-22T01:05:19;14.60;;;9.17;;
44026;SDS011;29696;55.698;37.460;2023-06-22T01:11:01;22.97;;;7.47;;
44026;SDS011;29696;55.698;37.460;2023-06-22T01:13:55;18.87;;;8.77;;
44026;SDS011;29696;55.698;37.460;2023-06-22T01:16:28;18.60;;;8.68;;
44026;SDS011;29696;55.698;37.460;2023-06-22T01:19:20;22.23;;;11.37;;
44026;SDS011;29696;55.698;37.460;2023-06-22T01:22:03;26.43;;;9.40;;
44026;SDS011;29696;55.698;37.460;2023-06-22T01:30:45;16.30;;;9.73;;
44026;SDS011;29696;55.698;37.460;2023-06-22T01:33:15;17.60;;;10.23;;
44026;SDS011;29696;55.698;37.460;2023-06-22T01:35:45;24.77;;;8.03;;
44026;SDS011;29696;55.698;37.460;2023-06-22T01:38:12;19.00;;;8.73;;
44026;SDS011;29696;55.698;37.460;2023-06-22T01:40:39;16.67;;;8.33;;
44026;SDS011;29696;55.698;37.460;2023-06-22T01:43:06;14.77;;;8.40;;
44026;SDS011;29696;55.698;37.460;2023-06-22T01:45:35;15.27;;;8.50;;
44026;SDS011;29696;55.698;37.460;2023-06-22T01:48:02;19.53;;;10.13;;
44026;SDS011;29696;55.698;37.460;2023-06-22T01:50:28;25.57;;;13.97;;
44026;SDS011;29696;55.698;37.460;2023-06-22T01:52:55;16.93;;;10.03;;
44026;SDS011;29696;55.698;37.460;2023-06-22T01:55:22;15.70;;;9.27;;
44026;SDS011;29696;55.698;37.460;2023-06-22T01:57:49;15.20;;;7.80;;
44026;SDS011;29696;55.698;37.460;2023-06-22T02:00:18;16.27;;;7.73;;
44026;SDS011;29696;55.698;37.460;2023-06-22T02:02:53;19.50;;;7.32;;
44026;SDS011;29696;55.698;37.460;2023-06-22T02:06:05;16.10;;;7.77;;
44026;SDS011;29696;55.698;37.460;2023-06-22T02:08:41;20.40;;;7.13;;
44026;SDS011;29696;55.698;37.460;2023-06-22T02:11:13;15.10;;;8.07;;
44026;SDS011;29696;55.698;37.460;2023-06-22T02:13:42;19.03;;;7.43;;
44026;SDS011;29696;55.698;37.460;2023-06-22T02:16:11;34.30;;;8.50;;
44026;SDS011;29696;55.698;37.460;2023-06-22T02:18:47;18.08;;;6.82;;
44026;SDS011;29696;55.698;37.460;2023-06-22T02:21:20;11.55;;;6.50;;
44026;SDS011;29696;55.698;37.460;2023-06-22T02:23:47;21.30;;;7.25;;
44026;SDS011;29696;55.698;37.460;2023-06-22T02:26:15;17.80;;;6.93;;
44026;SDS011;29696;55.698;37.460;2023-06-22T02:28:43;13.65;;;5.22;;
44026;SDS011;29696;55.698;37.460;2023-06-22T02:31:09;18.20;;;6.32;;
44026;SDS011;29696;55.698;37.460;2023-06-22T02:33:36;25.80;;;6.90;;
44026;SDS011;29696;55.698;37.460;2023-06-22T02:36:03;20.33;;;8.15;;
44026;SDS011;29696;55.698;37.460;2023-06-22T02:38:31;17.55;;;6.82;;
44026;SDS011;29696;55.698;37.460;2023-06-22T02:41:02;13.30;;;5.88;;
44026;SDS011;29696;55.698;37.460;2023-06-22T02:43:28;19.27;;;13.02;;
44026;SDS011;29696;55.698;37.460;2023-06-22T02:45:55;34.50;;;22.23;;
44026;SDS011;29696;55.698;37.460;2023-06-22T02:48:21;24.20;;;14.40;;
44026;SDS011;29696;55.698;37.460;2023-06-22T02:50:48;18.15;;;8.65;;
44026;SDS011;29696;55.698;37.460;2023-06-22T02:53:14;10.27;;;5.70;;
44026;SDS011;29696;55.698;37.460;2023-06-22T02:55:45;20.08;;;6.15;;
44026;SDS011;29696;55.698;37.460;2023-06-22T02:58:11;12.90;;;5.75;;
44026;SDS011;29696;55.698;37.460;2023-06-22T03:00:41;11.85;;;6.38;;
44026;SDS011;29696;55.698;37.460;2023-06-22T03:03:07;12.18;;;5.95;;
44026;SDS011;29696;55.698;37.460;2023-06-22T03:05:34;14.85;;;6.28;;
44026;SDS011;29696;55.698;37.460;2023-06-22T03:08:01;9.68;;;5.50;;
44026;SDS011;29696;55.698;37.460;2023-06-22T03:10:32;9.77;;;4.30;;
44026;SDS011;29696;55.698;37.460;2023-06-22T03:12:58;9.43;;;4.72;;
44026;SDS011;29696;55.698;37.460;2023-06-22T03:15:24;9.40;;;4.13;;
44026;SDS011;29696;55.698;37.460;2023-06-22T03:17:51;8.80;;;4.65;;
44026;SDS011;29696;55.698;37.460;2023-06-22T03:20:18;10.43;;;4.90;;
44026;SDS011;29696;55.698;37.460;2023-06-22T03:22:45;12.40;;;7.00;;
44026;SDS011;29696;55.698;37.460;2023-06-22T03:25:11;16.10;;;6.50;;
44026;SDS011;29696;55.698;37.460;2023-06-22T03:27:46;14.50;;;6.65;;
44026;SDS011;29696;55.698;37.460;2023-06-22T03:30:14;10.82;;;5.15;;
44026;SDS011;29696;55.698;37.460;2023-06-22T03:32:40;14.27;;;5.90;;
44026;SDS011;29696;55.698;37.460;2023-06-22T03:35:08;7.85;;;5.03;;
44026;SDS011;29696;55.698;37.460;2023-06-22T03:37:39;9.25;;;5.90;;
44026;SDS011;29696;55.698;37.460;2023-06-22T03:40:06;11.15;;;5.78;;
44026;SDS011;29696;55.698;37.460;2023-06-22T03:42:35;9.60;;;6.00;;
44026;SDS011;29696;55.698;37.460;2023-06-22T03:45:03;6.35;;;4.30;;
44026;SDS011;29696;55.698;37.460;2023-06-22T03:47:33;6.95;;;4.10;;
44026;SDS011;29696;55.698;37.460;2023-06-22T03:50:00;7.63;;;4.70;;
44026;SDS011;29696;55.698;37.460;2023-06-22T03:52:31;6.20;;;4.18;;
44026;SDS011;29696;55.698;37.460;2023-06-22T03:54:58;8.48;;;4.43;;
44026;SDS011;29696;55.698;37.460;2023-06-22T03:57:24;17.95;;;5.47;;
44026;SDS011;29696;55.698;37.460;2023-06-22T03:59:51;13.88;;;5.28;;
44026;SDS011;29696;55.698;37.460;2023-06-22T04:02:17;20.42;;;4.53;;
44026;SDS011;29696;55.698;37.460;2023-06-22T04:04:44;9.90;;;5.45;;
44026;SDS011;29696;55.698;37.460;2023-06-22T04:07:10;8.25;;;4.57;;
44026;SDS011;29696;55.698;37.460;2023-06-22T04:09:36;8.98;;;4.35;;
44026;SDS011;29696;55.698;37.460;2023-06-22T04:12:03;5.90;;;3.50;;
44026;SDS011;29696;55.698;37.460;2023-06-22T04:14:29;21.42;;;4.22;;
44026;SDS011;29696;55.698;37.460;2023-06-22T04:16:57;22.20;;;5.43;;
44026;SDS011;29696;55.698;37.460;2023-06-22T04:19:23;5.70;;;3.63;;
44026;SDS011;29696;55.698;37.460;2023-06-22T04:21:50;18.15;;;5.20;;
44026;SDS011;29696;55.698;37.460;2023-06-22T04:24:16;7.60;;;4.20;;
44026;SDS011;29696;55.698;37.460;2023-06-22T04:26:42;7.03;;;4.00;;
44026;SDS011;29696;55.698;37.460;2023-06-22T04:29:11;10.85;;;5.28;;
44026;SDS011;29696;55.698;37.460;2023-06-22T04:31:37;6.70;;;3.83;;
44026;SDS011;29696;55.698;37.460;2023-06-22T04:34:06;7.40;;;4.20;;
44026;SDS011;29696;55.698;37.460;2023-06-22T04:36:34;10.00;;;4.45;;
44026;SDS011;29696;55.698;37.460;2023-06-22T04:39:05;7.68;;;4.10;;
44026;SDS011;29696;55.698;37.460;2023-06-22T04:41:39;5.72;;;3.58;;
44026;SDS011;29696;55.698;37.460;2023-06-22T04:46:36;10.55;;;5.43;;
44026;SDS011;29696;55.698;37.460;2023-06-22T04:49:07;6.05;;;3.95;;
44026;SDS011;29696;55.698;37.460;2023-06-22T04:51:41;7.55;;;4.05;;
44026;SDS011;29696;55.698;37.460;2023-06-22T04:54:08;9.52;;;4.50;;
44026;SDS011;29696;55.698;37.460;2023-06-22T04:56:35;5.47;;;3.88;;
44026;SDS011;29696;55.698;37.460;2023-06-22T04:59:02;7.28;;;3.72;;
44026;SDS011;29696;55.698;37.460;2023-06-22T05:01:29;6.72;;;3.90;;
44026;SDS011;29696;55.698;37.460;2023-06-22T05:03:58;30.33;;;24.38;;
44026;SDS011;29696;55.698;37.460;2023-06-22T05:06:27;9.48;;;7.22;;
44026;SDS011;29696;55.698;37.460;2023-06-22T05:08:54;13.85;;;4.68;;
44026;SDS011;29696;55.698;37.460;2023-06-22T05:11:27;9.57;;;5.05;;
44026;SDS011;29696;55.698;37.460;2023-06-22T05:13:54;5.95;;;3.28;;
44026;SDS011;29696;55.698;37.460;2023-06-22T05:16:21;7.85;;;2.95;;
44026;SDS011;29696;55.698;37.460;2023-06-22T05:18:51;5.95;;;3.45;;
44026;SDS011;29696;55.698;37.460;2023-06-22T05:21:26;3.38;;;2.83;;
44026;SDS011;29696;55.698;37.460;2023-06-22T05:23:53;6.55;;;3.90;;
44026;SDS011;29696;55.698;37.460;2023-06-22T05:26:20;3.35;;;3.00;;
44026;SDS011;29696;55.698;37.460;2023-06-22T05:28:47;5.57;;;3.08;;
44026;SDS011;29696;55.698;37.460;2023-06-22T05:31:14;3.47;;;3.00;;
44026;SDS011;29696;55.698;37.460;2023-06-22T05:33:42;11.55;;;3.38;;
44026;SDS011;29696;55.698;37.460;2023-06-22T05:36:09;7.18;;;3.60;;
44026;SDS011;29696;55.698;37.460;2023-06-22T05:38:36;4.10;;;2.72;;
44026;SDS011;29696;55.698;37.460;2023-06-22T05:41:03;4.85;;;3.40;;
44026;SDS011;29696;55.698;37.460;2023-06-22T05:43:29;6.15;;;3.60;;
44026;SDS011;29696;55.698;37.460;2023-06-22T05:45:56;6.72;;;3.90;;
44026;SDS011;29696;55.698;37.460;2023-06-22T05:48:22;7.45;;;3.63;;
44026;SDS011;29696;55.698;37.460;2023-06-22T05:50:49;5.40;;;3.58;;
44026;SDS011;29696;55.698;37.460;2023-06-22T05:53:15;5.63;;;4.13;;
44026;SDS011;29696;55.698;37.460;2023-06-22T05:55:42;5.07;;;3.90;;
44026;SDS011;29696;55.698;37.460;2023-06-22T05:58:08;3.10;;;2.78;;
44026;SDS011;29696;55.698;37.460;2023-06-22T06:00:35;7.18;;;3.58;;
44026;SDS011;29696;55.698;37.460;2023-06-22T06:03:01;6.78;;;3.38;;
44026;SDS011;29696;55.698;37.460;2023-06-22T06:05:32;4.85;;;3.83;;
44026;SDS011;29696;55.698;37.460;2023-06-22T06:08:00;4.75;;;2.58;;
44026;SDS011;29696;55.698;37.460;2023-06-22T06:10:27;3.35;;;3.05;;
44026;SDS011;29696;55.698;37.460;2023-06-22T06:12:55;3.83;;;3.17;;
44026;SDS011;29696;55.698;37.460;2023-06-22T06:15:22;4.22;;;3.33;;
44026;SDS011;29696;55.698;37.460;2023-06-22T06:17:52;3.30;;;2.70;;
44026;SDS011;29696;55.698;37.460;2023-06-22T06:20:19;3.92;;;3.00;;
44026;SDS011;29696;55.698;37.460;2023-06-22T06:22:47;5.13;;;2.88;;
44026;SDS011;29696;55.698;37.460;2023-06-22T06:25:15;5.93;;;2.58;;
44026;SDS011;29696;55.698;37.460;2023-06-22T06:27:42;4.22;;;2.88;;
44026;SDS011;29696;55.698;37.460;2023-06-22T06:30:10;4.55;;;3.13;;
44026;SDS011;29696;55.698;37.460;2023-06-22T06:32:37;4.63;;;2.88;;
44026;SDS011;29696;55.698;37.460;2023-06-22T06:35:05;4.82;;;3.13;;
44026;SDS011;29696;55.698;37.460;2023-06-22T06:37:35;3.55;;;3.20;;
44026;SDS011;29696;55.698;37.460;2023-06-22T06:40:09;4.22;;;3.42;;
44026;SDS011;29696;55.698;37.460;2023-06-22T06:42:38;4.65;;;3.22;;
44026;SDS011;29696;55.698;37.460;2023-06-22T06:45:07;4.68;;;4.03;;
44026;SDS011;29696;55.698;37.460;2023-06-22T06:47:35;4.93;;;2.92;;
44026;SDS011;29696;55.698;37.460;2023-06-22T06:50:02;3.25;;;2.95;;
44026;SDS011;29696;55.698;37.460;2023-06-22T06:52:30;5.85;;;3.47;;
44026;SDS011;29696;55.698;37.460;2023-06-22T06:54:57;7.47;;;3.80;;
44026;SDS011;29696;55.698;37.460;2023-06-22T06:57:23;3.92;;;3.42;;
44026;SDS011;29696;55.698;37.460;2023-06-22T06:59:49;5.07;;;3.08;;
44026;SDS011;29696;55.698;37.460;2023-06-22T07:02:16;4.53;;;3.40;;
44026;SDS011;29696;55.698;37.460;2023-06-22T07:04:42;3.50;;;3.20;;
44026;SDS011;29696;55.698;37.460;2023-06-22T07:07:08;6.20;;;3.75;;
44026;SDS011;29696;55.698;37.460;2023-06-22T07:09:35;3.75;;;3.22;;
44026;SDS011;29696;55.698;37.460;2023-06-22T07:12:01;8.63;;;3.10;;
44026;SDS011;29696;55.698;37.460;2023-06-22T07:14:27;6.90;;;3.63;;
44026;SDS011;29696;55.698;37.460;2023-06-22T07:16:54;3.40;;;3.10;;
44026;SDS011;29696;55.698;37.460;2023-06-22T07:19:29;5.45;;;3.42;;
44026;SDS011;29696;55.698;37.460;2023-06-22T07:21:56;5.70;;;3.75;;
44026;SDS011;29696;55.698;37.460;2023-06-22T07:24:23;3.75;;;3.35;;
44026;SDS011;29696;55.698;37.460;2023-06-22T07:26:51;7.57;;;3.88;;
44026;SDS011;29696;55.698;37.460;2023-06-22T07:29:17;4.07;;;3.42;;
44026;SDS011;29696;55.698;37.460;2023-06-22T07:31:45;7.20;;;4.00;;
44026;SDS011;29696;55.698;37.460;2023-06-22T07:34:13;4.07;;;3.28;;
44026;SDS011;29696;55.698;37.460;2023-06-22T07:36:39;6.57;;;4.13;;
44026;SDS011;29696;55.698;37.460;2023-06-22T07:39:06;5.68;;;3.38;;
44026;SDS011;29696;55.698;37.460;2023-06-22T07:41:32;5.35;;;3.78;;
44026;SDS011;29696;55.698;37.460;2023-06-22T07:43:58;5.20;;;3.33;;
44026;SDS011;29696;55.698;37.460;2023-06-22T07:46:25;3.47;;;3.13;;
44026;SDS011;29696;55.698;37.460;2023-06-22T07:48:51;5.47;;;3.10;;
44026;SDS011;29696;55.698;37.460;2023-06-22T07:51:17;6.10;;;3.88;;
44026;SDS011;29696;55.698;37.460;2023-06-22T07:53:44;8.20;;;3.72;;
44026;SDS011;29696;55.698;37.460;2023-06-22T07:56:10;7.25;;;3.60;;
44026;SDS011;29696;55.698;37.460;2023-06-22T07:58:37;4.75;;;3.45;;
44026;SDS011;29696;55.698;37.460;2023-06-22T08:01:03;5.13;;;3.72;;
44026;SDS011;29696;55.698;37.460;2023-06-22T08:03:30;4.75;;;3.55;;
44026;SDS011;29696;55.698;37.460;2023-06-22T08:05:56;4.43;;;3.50;;
44026;SDS011;29696;55.698;37.460;2023-06-22T08:08:23;5.68;;;3.28;;
44026;SDS011;29696;55.698;37.460;2023-06-22T08:10:49;6.57;;;4.13;;
44026;SDS011;29696;55.698;37.460;2023-06-22T08:13:15;7.63;;;5.55;;
44026;SDS011;29696;55.698;37.460;2023-06-22T08:15:42;7.40;;;4.25;;
44026;SDS011;29696;55.698;37.460;2023-06-22T08:18:08;7.93;;;4.03;;
44026;SDS011;29696;55.698;37.460;2023-06-22T08:20:34;9.63;;;4.30;;
44026;SDS011;29696;55.698;37.460;2023-06-22T08:23:01;7.90;;;4.35;;
44026;SDS011;29696;55.698;37.460;2023-06-22T08:25:32;6.72;;;3.42;;
44026;SDS011;29696;55.698;37.460;2023-06-22T08:28:00;8.90;;;2.90;;
44026;SDS011;29696;55.698;37.460;2023-06-22T08:30:29;3.85;;;3.22;;
44026;SDS011;29696;55.698;37.460;2023-06-22T08:32:56;5.88;;;4.10;;
44026;SDS011;29696;55.698;37.460;2023-06-22T08:35:23;3.85;;;3.45;;
44026;SDS011;29696;55.698;37.460;2023-06-22T08:37:49;8.35;;;3.60;;
44026;SDS011;29696;55.698;37.460;2023-06-22T08:40:19;7.93;;;3.90;;
44026;SDS011;29696;55.698;37.460;2023-06-22T08:42:46;6.00;;;2.75;;
44026;SDS011;29696;55.698;37.460;2023-06-22T08:45:13;4.05;;;3.28;;
44026;SDS011;29696;55.698;37.460;2023-06-22T08:47:40;8.30;;;3.38;;
44026;SDS011;29696;55.698;37.460;2023-06-22T08:50:10;4.53;;;3.35;;
44026;SDS011;29696;55.698;37.460;2023-06-22T08:52:38;4.32;;;3.65;;
44026;SDS011;29696;55.698;37.460;2023-06-22T08:55:07;6.20;;;3.65;;
44026;SDS011;29696;55.698;37.460;2023-06-22T08:57:35;4.97;;;3.92;;
44026;SDS011;29696;55.698;37.460;2023-06-22T09:00:07;6.10;;;3.88;;
44026;SDS011;29696;55.698;37.460;2023-06-22T09:02:43;4.57;;;3.00;;
44026;SDS011;29696;55.698;37.460;2023-06-22T09:05:10;4.22;;;3.75;;
44026;SDS011;29696;55.698;37.460;2023-06-22T09:07:37;4.88;;;4.00;;
44026;SDS011;29696;55.698;37.460;2023-06-22T09:10:04;5.88;;;5.35;;
44026;SDS011;29696;55.698;37.460;2023-06-22T09:12:33;9.10;;;7.55;;
44026;SDS011;29696;55.698;37.460;2023-06-22T09:15:00;4.05;;;3.45;;
44026;SDS011;29696;55.698;37.460;2023-06-22T09:17:33;4.93;;;4.07;;
44026;SDS011;29696;55.698;37.460;2023-06-22T09:20:00;4.30;;;3.80;;
44026;SDS011;29696;55.698;37.460;2023-06-22T09:22:27;4.03;;;3.42;;
44026;SDS011;29696;55.698;37.460;2023-06-22T09:24:55;4.85;;;4.25;;
44026;SDS011;29696;55.698;37.460;2023-06-22T09:27:22;4.60;;;3.92;;
44026;SDS011;29696;55.698;37.460;2023-06-22T09:29:49;4.25;;;3.70;;
44026;SDS011;29696;55.698;37.460;2023-06-22T09:32:16;7.82;;;3.88;;
44026;SDS011;29696;55.698;37.460;2023-06-22T09:34:42;7.70;;;4.20;;
44026;SDS011;29696;55.698;37.460;2023-06-22T09:37:09;4.88;;;3.70;;
44026;SDS011;29696;55.698;37.460;2023-06-22T09:39:35;6.03;;;3.97;;
44026;SDS011;29696;55.698;37.460;2023-06-22T09:42:02;6.57;;;4.18;;
44026;SDS011;29696;55.698;37.460;2023-06-22T09:44:31;7.18;;;3.85;;
44026;SDS011;29696;55.698;37.460;2023-06-22T09:46:57;6.40;;;3.83;;
44026;SDS011;29696;55.698;37.460;2023-06-22T09:49:24;4.60;;;3.95;;
44026;SDS011;29696;55.698;37.460;2023-06-22T09:51:50;4.15;;;3.63;;
44026;SDS011;29696;55.698;37.460;2023-06-22T09:54:18;6.10;;;3.83;;
44026;SDS011;29696;55.698;37.460;2023-06-22T09:56:44;8.77;;;3.85;;
44026;SDS011;29696;55.698;37.460;2023-06-22T09:59:10;6.00;;;4.25;;
44026;SDS011;29696;55.698;37.460;2023-06-22T10:01:37;8.52;;;5.20;;
44026;SDS011;29696;55.698;37.460;2023-06-22T10:04:03;5.80;;;3.88;;
44026;SDS011;29696;55.698;37.460;2023-06-22T10:06:29;4.80;;;3.40;;
44026;SDS011;29696;55.698;37.460;2023-06-22T10:08:56;7.28;;;3.55;;
44026;SDS011;29696;55.698;37.460;2023-06-22T10:11:22;6.43;;;4.22;;
44026;SDS011;29696;55.698;37.460;2023-06-22T10:13:55;6.43;;;4.43;;
44026;SDS011;29696;55.698;37.460;2023-06-22T10:16:23;5.28;;;4.60;;
44026;SDS011;29696;55.698;37.460;2023-06-22T10:18:56;3.95;;;3.38;;
44026;SDS011;29696;55.698;37.460;2023-06-22T10:21:22;5.45;;;4.30;;
44026;SDS011;29696;55.698;37.460;2023-06-22T10:23:49;8.88;;;4.00;;
44026;SDS011;29696;55.698;37.460;2023-06-22T10:26:15;7.18;;;5.15;;
44026;SDS011;29696;55.698;37.460;2023-06-22T10:28:41;7.50;;;4.65;;
44026;SDS011;29696;55.698;37.460;2023-06-22T10:31:07;8.05;;;5.15;;
44026;SDS011;29696;55.698;37.460;2023-06-22T10:33:34;5.47;;;4.40;;
44026;SDS011;29696;55.698;37.460;2023-06-22T10:36:00;6.68;;;5.03;;
44026;SDS011;29696;55.698;37.460;2023-06-22T10:38:27;5.55;;;3.75;;
44026;SDS011;29696;55.698;37.460;2023-06-22T10:40:53;6.28;;;4.28;;
44026;SDS011;29696;55.698;37.460;2023-06-22T10:43:19;5.88;;;5.10;;
44026;SDS011;29696;55.698;37.460;2023-06-22T10:45:46;4.85;;;4.22;;
44026;SDS011;29696;55.698;37.460;2023-06-22T10:48:12;6.47;;;4.20;;
44026;SDS011;29696;55.698;37.460;2023-06-22T10:50:38;7.70;;;5.35;;
44026;SDS011;29696;55.698;37.460;2023-06-22T10:53:05;11.00;;;3.92;;
44026;SDS011;29696;55.698;37.460;2023-06-22T10:55:31;5.13;;;4.60;;
44026;SDS011;29696;55.698;37.460;2023-06-22T10:57:58;7.43;;;4.70;;
44026;SDS011;29696;55.698;37.460;2023-06-22T11:00:24;7.22;;;4.13;;
44026;SDS011;29696;55.698;37.460;2023-06-22T11:02:50;4.93;;;3.97;;
44026;SDS011;29696;55.698;37.460;2023-06-22T11:05:17;8.75;;;4.85;;
44026;SDS011;29696;55.698;37.460;2023-06-22T11:07:43;6.50;;;4.72;;
44026;SDS011;29696;55.698;37.460;2023-06-22T11:10:10;5.72;;;4.25;;
44026;SDS011;29696;55.698;37.460;2023-06-22T11:12:38;8.02;;;4.03;;
44026;SDS011;29696;55.698;37.460;2023-06-22T11:15:04;10.65;;;4.40;;
44026;SDS011;29696;55.698;37.460;2023-06-22T11:17:32;7.60;;;4.07;;
44026;SDS011;29696;55.698;37.460;2023-06-22T11:19:58;8.73;;;4.18;;
44026;SDS011;29696;55.698;37.460;2023-06-22T11:22:26;6.80;;;4.72;;
44026;SDS011;29696;55.698;37.460;2023-06-22T11:24:53;7.72;;;4.63;;
44026;SDS011;29696;55.698;37.460;2023-06-22T11:27:19;4.25;;;3.63;;
44026;SDS011;29696;55.698;37.460;2023-06-22T11:29:45;4.72;;;4.03;;
44026;SDS011;29696;55.698;37.460;2023-06-22T11:32:12;5.35;;;3.88;;
44026;SDS011;29696;55.698;37.460;2023-06-22T11:34:38;8.20;;;5.03;;
44026;SDS011;29696;55.698;37.460;2023-06-22T11:37:05;8.55;;;4.55;;
44026;SDS011;29696;55.698;37.460;2023-06-22T11:39:32;7.13;;;4.60;;
44026;SDS011;29696;55.698;37.460;2023-06-22T11:41:58;7.15;;;5.40;;
44026;SDS011;29696;55.698;37.460;2023-06-22T11:44:25;8.10;;;5.18;;
44026;SDS011;29696;55.698;37.460;2023-06-22T11:46:51;5.90;;;4.13;;
44026;SDS011;29696;55.698;37.460;2023-06-22T11:49:18;7.45;;;4.90;;
44026;SDS011;29696;55.698;37.460;2023-06-22T11:51:44;6.90;;;5.00;;
44026;SDS011;29696;55.698;37.460;2023-06-22T11:54:10;5.43;;;3.95;;
44026;SDS011;29696;55.698;37.460;2023-06-22T11:56:36;5.20;;;4.70;;
44026;SDS011;29696;55.698;37.460;2023-06-22T11:59:03;5.53;;;4.63;;
44026;SDS011;29696;55.698;37.460;2023-06-22T12:01:29;8.70;;;4.38;;
44026;SDS011;29696;55.698;37.460;2023-06-22T12:03:56;10.95;;;5.28;;
44026;SDS011;29696;55.698;37.460;2023-06-22T12:06:22;5.78;;;4.20;;
44026;SDS011;29696;55.698;37.460;2023-06-22T12:08:48;6.40;;;4.47;;
44026;SDS011;29696;55.698;37.460;2023-06-22T12:11:14;7.10;;;3.83;;
44026;SDS011;29696;55.698;37.460;2023-06-22T12:13:41;7.53;;;4.30;;
44026;SDS011;29696;55.698;37.460;2023-06-22T12:16:07;7.07;;;4.70;;
44026;SDS011;29696;55.698;37.460;2023-06-22T12:18:33;6.55;;;4.40;;
44026;SDS011;29696;55.698;37.460;2023-06-22T12:21:00;4.82;;;4.15;;
44026;SDS011;29696;55.698;37.460;2023-06-22T12:23:26;5.75;;;3.88;;
44026;SDS011;29696;55.698;37.460;2023-06-22T12:25:53;4.30;;;3.65;;
44026;SDS011;29696;55.698;37.460;2023-06-22T12:28:19;7.80;;;4.95;;
44026;SDS011;29696;55.698;37.460;2023-06-22T12:30:46;8.23;;;3.97;;
44026;SDS011;29696;55.698;37.460;2023-06-22T12:33:12;7.10;;;4.30;;
44026;SDS011;29696;55.698;37.460;2023-06-22T12:35:39;5.35;;;4.85;;
44026;SDS011;29696;55.698;37.460;2023-06-22T12:38:05;11.32;;;4.65;;
44026;SDS011;29696;55.698;37.460;2023-06-22T12:40:33;7.40;;;4.78;;
44026;SDS011;29696;55.698;37.460;2023-06-22T12:42:59;4.93;;;3.65;;
44026;SDS011;29696;55.698;37.460;2023-06-22T12:45:25;5.68;;;4.00;;
44026;SDS011;29696;55.698;37.460;2023-06-22T12:47:54;5.57;;;3.78;;
44026;SDS011;29696;55.698;37.460;2023-06-22T12:50:21;7.40;;;4.25;;
44026;SDS011;29696;55.698;37.460;2023-06-22T12:52:47;5.05;;;4.55;;
44026;SDS011;29696;55.698;37.460;2023-06-22T12:55:14;6.38;;;4.38;;
44026;SDS011;29696;55.698;37.460;2023-06-22T12:57:40;6.35;;;4.63;;
44026;SDS011;29696;55.698;37.460;2023-06-22T13:00:07;5.88;;;4.28;;
44026;SDS011;29696;55.698;37.460;2023-06-22T13:02:37;5.50;;;4.60;;
44026;SDS011;29696;55.698;37.460;2023-06-22T13:05:04;4.47;;;4.07;;
44026;SDS011;29696;55.698;37.460;2023-06-22T13:07:34;9.50;;;4.57;;
44026;SDS011;29696;55.698;37.460;2023-06-22T13:10:00;4.63;;;3.97;;
44026;SDS011;29696;55.698;37.460;2023-06-22T13:12:31;4.45;;;4.05;;
44026;SDS011;29696;55.698;37.460;2023-06-22T13:14:57;5.35;;;4.30;;
44026;SDS011;29696;55.698;37.460;2023-06-22T13:17:24;9.30;;;4.10;;
44026;SDS011;29696;55.698;37.460;2023-06-22T13:19:50;5.35;;;3.65;;
44026;SDS011;29696;55.698;37.460;2023-06-22T13:25:12;11.68;;;7.22;;
44026;SDS011;29696;55.698;37.460;2023-06-22T13:27:39;7.18;;;4.95;;
44026;SDS011;29696;55.698;37.460;2023-06-22T13:30:06;8.50;;;5.57;;
44026;SDS011;29696;55.698;37.460;2023-06-22T13:32:33;7.28;;;5.25;;
44026;SDS011;29696;55.698;37.460;2023-06-22T13:35:00;6.82;;;5.03;;
44026;SDS011;29696;55.698;37.460;2023-06-22T13:37:27;7.38;;;4.57;;
44026;SDS011;29696;55.698;37.460;2023-06-22T13:39:53;6.43;;;5.00;;
44026;SDS011;29696;55.698;37.460;2023-06-22T13:42:22;12.00;;;6.68;;
44026;SDS011;29696;55.698;37.460;2023-06-22T13:44:48;5.57;;;4.40;;
44026;SDS011;29696;55.698;37.460;2023-06-22T13:47:14;9.77;;;5.22;;
44026;SDS011;29696;55.698;37.460;2023-06-22T13:49:41;9.20;;;4.93;;
44026;SDS011;29696;55.698;37.460;2023-06-22T13:52:07;9.95;;;5.38;;
44026;SDS011;29696;55.698;37.460;2023-06-22T13:54:36;6.68;;;4.85;;
44026;SDS011;29696;55.698;37.460;2023-06-22T13:57:03;6.65;;;4.28;;
44026;SDS011;29696;55.698;37.460;2023-06-22T13:59:29;9.95;;;5.78;;
44026;SDS011;29696;55.698;37.460;2023-06-22T14:01:56;6.60;;;5.07;;
44026;SDS011;29696;55.698;37.460;2023-06-22T14:04:22;7.85;;;4.68;;
44026;SDS011;29696;55.698;37.460;2023-06-22T14:06:49;7.82;;;4.80;;
44026;SDS011;29696;55.698;37.460;2023-06-22T14:09:16;6.05;;;4.72;;
44026;SDS011;29696;55.698;37.460;2023-06-22T14:11:42;6.97;;;4.15;;
44026;SDS011;29696;55.698;37.460;2023-06-22T14:14:08;6.82;;;5.47;;
44026;SDS011;29696;55.698;37.460;2023-06-22T14:16:35;11.60;;;5.53;;
44026;SDS011;29696;55.698;37.460;2023-06-22T14:19:01;6.93;;;4.70;;
44026;SDS011;29696;55.698;37.460;2023-06-22T14:21:27;5.22;;;4.72;;
44026;SDS011;29696;55.698;37.460;2023-06-22T14:23:54;5.85;;;4.20;;
44026;SDS011;29696;55.698;37.460;2023-06-22T14:26:20;10.02;;;4.90;;
44026;SDS011;29696;55.698;37.460;2023-06-22T14:28:47;5.47;;;4.50;;
44026;SDS011;29696;55.698;37.460;2023-06-22T14:31:16;9.35;;;4.72;;
44026;SDS011;29696;55.698;37.460;2023-06-22T14:33:45;8.77;;;4.68;;
44026;SDS011;29696;55.698;37.460;2023-06-22T14:36:13;7.72;;;4.80;;
44026;SDS011;29696;55.698;37.460;2023-06-22T14:38:40;6.85;;;4.88;;
44026;SDS011;29696;55.698;37.460;2023-06-22T14:41:06;8.15;;;6.50;;
44026;SDS011;29696;55.698;37.460;2023-06-22T14:43:33;6.47;;;4.40;;
44026;SDS011;29696;55.698;37.460;2023-06-22T14:45:59;7.45;;;4.90;;
44026;SDS011;29696;55.698;37.460;2023-06-22T14:48:26;7.60;;;4.80;;